createdAt,value
2022-11-16T00:01:58.032Z,8.53
2022-11-16T00:04:25.459Z,9.90
2022-11-16T00:06:52.627Z,9.90
2022-11-16T00:09:22.651Z,9.80
2022-11-16T00:11:52.022Z,9.63
2022-11-16T00:14:20.588Z,9.50
2022-11-16T00:16:47.743Z,8.27
2022-11-16T00:19:14.903Z,8.13
2022-11-16T00:21:42.466Z,7.17
2022-11-16T00:24:13.607Z,8.17
2022-11-16T00:26:41.480Z,7.53
2022-11-16T00:29:15.239Z,8.47
2022-11-16T00:31:42.991Z,7.27
2022-11-16T00:34:10.206Z,9.13
2022-11-16T00:36:37.501Z,8.10
2022-11-16T00:39:04.665Z,8.47
2022-11-16T00:41:31.891Z,7.10
2022-11-16T00:43:58.996Z,8.00
2022-11-16T00:46:26.174Z,7.90
2022-11-16T00:48:53.432Z,7.63
2022-11-16T00:51:20.960Z,7.77
2022-11-16T00:53:48.216Z,7.03
2022-11-16T00:56:15.528Z,7.17
2022-11-16T00:58:44.340Z,7.20
2022-11-16T01:01:12.731Z,7.40
2022-11-16T01:03:40.511Z,7.13
2022-11-16T01:06:11.250Z,7.70
2022-11-16T01:08:40.038Z,7.47
2022-11-16T01:11:27.023Z,7.30
2022-11-16T01:13:55.147Z,7.32
2022-11-16T01:16:23.492Z,7.77
2022-11-16T01:18:53.266Z,8.43
2022-11-16T01:21:21.475Z,7.80
2022-11-16T01:23:48.911Z,6.97
2022-11-16T01:26:16.016Z,7.50
2022-11-16T01:28:43.403Z,7.70
2022-11-16T01:31:11.836Z,7.63
2022-11-16T01:33:39.839Z,7.50
2022-11-16T01:36:14.947Z,8.30
2022-11-16T01:38:47.503Z,7.87
2022-11-16T01:41:20.969Z,7.27
2022-11-16T01:43:54.212Z,6.88
2022-11-16T01:46:24.331Z,7.17
2022-11-16T01:49:14.658Z,7.50
2022-11-16T01:51:57.454Z,7.80
2022-11-16T01:54:27.643Z,7.10
2022-11-16T01:57:00.857Z,8.20
2022-11-16T01:59:41.317Z,7.60
2022-11-16T02:02:15.030Z,7.00
2022-11-16T02:04:43.840Z,7.13
2022-11-16T02:08:04.554Z,7.17
2022-11-16T02:10:50.314Z,6.40
2022-11-16T02:13:32.595Z,7.10
2022-11-16T02:16:18.490Z,5.77
2022-11-16T02:19:10.938Z,5.80
2022-11-16T02:21:46.756Z,6.17
2022-11-16T02:24:32.788Z,6.30
2022-11-16T02:27:28.670Z,5.90
2022-11-16T02:29:57.041Z,5.80
2022-11-16T02:32:31.777Z,6.10
2022-11-16T02:35:13.671Z,5.30
2022-11-16T02:37:51.508Z,5.60
2022-11-16T02:40:22.462Z,5.00
2022-11-16T02:42:58.275Z,5.20
2022-11-16T02:45:30.044Z,4.90
2022-11-16T02:48:03.306Z,5.13
2022-11-16T02:50:33.000Z,5.53
2022-11-16T02:53:00.060Z,4.93
2022-11-16T02:55:34.369Z,5.57
2022-11-16T02:58:05.042Z,6.03
2022-11-16T03:00:48.667Z,5.40
2022-11-16T03:03:39.551Z,6.03
2022-11-16T03:06:28.967Z,5.50
2022-11-16T03:09:02.920Z,4.80
2022-11-16T03:11:53.595Z,4.67
2022-11-16T03:14:23.713Z,4.90
2022-11-16T03:16:57.644Z,5.47
2022-11-16T03:19:36.702Z,4.90
2022-11-16T03:22:21.017Z,5.90
2022-11-16T03:24:49.601Z,5.07
2022-11-16T03:27:54.035Z,5.70
2022-11-16T03:30:24.282Z,4.90
2022-11-16T03:33:01.201Z,4.13
2022-11-16T03:36:20.008Z,4.00
2022-11-16T03:38:50.942Z,4.07
2022-11-16T03:41:22.454Z,4.60
2022-11-16T03:43:50.647Z,4.60
2022-11-16T03:46:19.175Z,5.50
2022-11-16T03:48:46.485Z,5.13
2022-11-16T03:51:21.907Z,5.20
2022-11-16T03:53:48.911Z,4.63
2022-11-16T03:56:15.913Z,5.13
2022-11-16T03:58:42.940Z,4.97
2022-11-16T04:01:10.147Z,4.70
2022-11-16T04:03:38.016Z,4.70
2022-11-16T04:06:24.103Z,4.90
2022-11-16T04:09:09.909Z,4.20
2022-11-16T04:11:57.393Z,4.60
2022-11-16T04:14:44.986Z,5.10
2022-11-16T04:17:35.880Z,4.80
2022-11-16T04:20:23.903Z,4.53
2022-11-16T04:23:13.245Z,4.33
2022-11-16T04:25:42.018Z,4.30
2022-11-16T04:28:17.597Z,4.53
2022-11-16T04:31:10.461Z,4.97
2022-11-16T04:33:58.849Z,4.70
2022-11-16T04:36:45.218Z,5.73
2022-11-16T04:39:12.742Z,5.93
2022-11-16T04:41:58.476Z,4.57
2022-11-16T04:44:48.872Z,5.50
2022-11-16T04:47:16.670Z,5.60
2022-11-16T04:49:43.845Z,5.67
2022-11-16T04:52:12.026Z,5.40
2022-11-16T04:54:40.000Z,5.70
2022-11-16T04:57:08.385Z,6.00
2022-11-16T04:59:35.562Z,5.73
2022-11-16T05:02:09.358Z,5.53
2022-11-16T05:04:48.081Z,6.03
2022-11-16T05:07:15.815Z,5.33
2022-11-16T05:09:47.069Z,5.10
2022-11-16T05:12:24.352Z,5.83
2022-11-16T05:14:55.984Z,6.10
2022-11-16T05:17:27.381Z,5.80
2022-11-16T05:20:15.318Z,5.83
2022-11-16T05:22:56.410Z,6.10
2022-11-16T05:25:26.205Z,5.47
2022-11-16T05:27:54.782Z,5.60
2022-11-16T05:30:22.037Z,6.43
2022-11-16T05:32:49.372Z,5.93
2022-11-16T05:35:19.450Z,5.23
2022-11-16T05:37:47.153Z,5.47
2022-11-16T05:40:14.305Z,6.00
2022-11-16T05:42:52.001Z,5.40
2022-11-16T05:45:21.348Z,5.30
2022-11-16T05:47:49.635Z,5.27
2022-11-16T05:50:17.630Z,5.97
2022-11-16T05:52:59.663Z,6.60
2022-11-16T05:55:26.867Z,8.17
2022-11-16T05:57:54.814Z,6.43
2022-11-16T06:00:22.690Z,6.73
2022-11-16T06:02:52.661Z,6.20
2022-11-16T06:05:24.394Z,6.77
2022-11-16T06:07:51.791Z,7.80
2022-11-16T06:10:19.078Z,6.90
2022-11-16T06:12:49.109Z,8.00
2022-11-16T06:15:17.256Z,6.93
2022-11-16T06:17:44.692Z,6.53
2022-11-16T06:20:12.941Z,6.73
2022-11-16T06:22:40.771Z,7.20
2022-11-16T06:25:08.838Z,7.93
2022-11-16T06:27:41.679Z,7.17
2022-11-16T06:30:10.700Z,7.10
2022-11-16T06:32:40.162Z,9.33
2022-11-16T06:35:08.536Z,8.53
2022-11-16T06:37:36.961Z,8.50
2022-11-16T06:40:04.345Z,8.27
2022-11-16T06:42:35.799Z,8.87
2022-11-16T06:45:03.717Z,10.60
2022-11-16T06:47:36.455Z,10.33
2022-11-16T06:50:04.421Z,10.77
2022-11-16T06:52:31.966Z,9.20
2022-11-16T06:54:59.198Z,8.47
2022-11-16T06:57:31.104Z,9.13
2022-11-16T06:59:58.162Z,8.20
2022-11-16T07:02:25.163Z,9.63
2022-11-16T07:04:52.121Z,8.70
2022-11-16T07:07:19.132Z,8.30
2022-11-16T07:09:46.329Z,9.73
2022-11-16T07:12:14.928Z,7.87
2022-11-16T07:14:42.575Z,8.03
2022-11-16T07:17:11.508Z,8.20
2022-11-16T07:19:40.233Z,8.67
2022-11-16T07:22:07.757Z,8.10
2022-11-16T07:24:34.952Z,8.20
2022-11-16T07:27:02.819Z,7.63
2022-11-16T07:29:35.016Z,8.93
2022-11-16T07:32:32.133Z,8.07
2022-11-16T07:37:38.001Z,7.37
2022-11-16T07:40:06.672Z,7.73
2022-11-16T07:42:33.738Z,8.63
2022-11-16T07:45:07.731Z,7.30
2022-11-16T07:47:39.862Z,8.47
2022-11-16T07:50:11.257Z,7.90
2022-11-16T07:52:38.610Z,7.67
2022-11-16T07:55:15.875Z,7.87
2022-11-16T07:57:47.952Z,8.67
2022-11-16T08:00:19.321Z,8.03
2022-11-16T08:02:56.392Z,8.53
2022-11-16T08:05:23.557Z,8.73
2022-11-16T08:07:51.769Z,7.40
2022-11-16T08:10:23.442Z,8.37
2022-11-16T08:12:50.729Z,7.40
2022-11-16T08:15:19.817Z,7.67
2022-11-16T08:17:47.162Z,8.17
2022-11-16T08:20:14.551Z,7.63
2022-11-16T08:22:43.216Z,7.90
2022-11-16T08:25:11.772Z,8.23
2022-11-16T08:27:41.881Z,7.75
2022-11-16T08:30:09.966Z,6.95
2022-11-16T08:32:41.498Z,8.48
2022-11-16T08:35:09.581Z,6.68
2022-11-16T08:37:36.604Z,6.55
2022-11-16T08:40:03.885Z,7.93
2022-11-16T08:42:39.394Z,8.23
2022-11-16T08:45:10.207Z,7.28
2022-11-16T08:47:37.444Z,7.18
2022-11-16T08:50:07.013Z,7.50
2022-11-16T08:52:34.125Z,7.70
2022-11-16T08:55:02.455Z,7.05
2022-11-16T08:57:30.988Z,6.80
2022-11-16T09:00:00.605Z,6.35
2022-11-16T09:02:27.621Z,6.43
2022-11-16T09:04:54.759Z,6.88
2022-11-16T09:07:22.024Z,6.50
2022-11-16T09:09:48.976Z,6.45
2022-11-16T09:12:17.834Z,6.38
2022-11-16T09:14:44.718Z,7.20
2022-11-16T09:17:11.843Z,6.20
2022-11-16T09:19:38.839Z,6.57
2022-11-16T09:22:06.089Z,5.95
2022-11-16T09:24:33.135Z,6.18
2022-11-16T09:27:01.604Z,5.85
2022-11-16T09:29:31.760Z,6.55
2022-11-16T09:31:58.867Z,6.13
2022-11-16T09:34:26.205Z,5.95
2022-11-16T09:36:53.279Z,6.45
2022-11-16T09:39:30.973Z,6.57
2022-11-16T09:42:16.666Z,5.97
2022-11-16T09:45:23.468Z,6.22
2022-11-16T09:48:03.951Z,4.90
2022-11-16T09:50:47.630Z,5.05
2022-11-16T09:53:28.812Z,4.85
2022-11-16T09:56:17.849Z,4.82
2022-11-16T09:59:04.264Z,4.50
2022-11-16T10:01:55.728Z,4.43
2022-11-16T10:04:47.644Z,4.82
2022-11-16T10:07:18.215Z,4.50
2022-11-16T10:09:46.773Z,4.90
2022-11-16T10:12:31.860Z,4.65
2022-11-16T10:15:18.006Z,5.47
2022-11-16T10:18:03.243Z,4.85
2022-11-16T10:20:58.158Z,5.75
2022-11-16T10:23:43.911Z,6.03
2022-11-16T10:26:38.828Z,6.53
2022-11-16T10:29:13.607Z,5.93
2022-11-16T10:31:57.164Z,6.13
2022-11-16T10:34:34.041Z,5.55
2022-11-16T10:37:07.845Z,8.63
2022-11-16T10:39:36.782Z,6.85
2022-11-16T10:42:11.351Z,5.55
2022-11-16T10:44:46.723Z,4.90
2022-11-16T10:47:22.977Z,5.03
2022-11-16T10:50:17.233Z,5.15
2022-11-16T10:52:44.267Z,5.90
2022-11-16T10:55:17.932Z,4.65
2022-11-16T10:57:57.376Z,4.32
2022-11-16T11:00:51.911Z,4.15
2022-11-16T11:03:32.740Z,4.55
2022-11-16T11:06:00.260Z,4.28
2022-11-16T11:08:31.294Z,4.00
2022-11-16T11:11:25.235Z,4.18
2022-11-16T11:14:15.837Z,4.35
2022-11-16T11:16:43.074Z,4.55
2022-11-16T11:19:29.912Z,4.95
2022-11-16T11:22:01.165Z,3.90
2022-11-16T11:24:43.875Z,3.88
2022-11-16T11:27:12.590Z,3.88
2022-11-16T11:29:43.294Z,4.45
2022-11-16T11:32:20.984Z,4.13
2022-11-16T11:34:56.425Z,4.32
2022-11-16T11:37:37.445Z,4.20
2022-11-16T11:40:28.814Z,4.00
2022-11-16T11:42:59.950Z,4.40
2022-11-16T11:45:51.548Z,4.38
2022-11-16T11:48:25.647Z,5.35
2022-11-16T11:51:21.393Z,5.07
2022-11-16T11:53:59.255Z,4.57
2022-11-16T11:56:30.819Z,5.32
2022-11-16T11:58:58.213Z,4.03
2022-11-16T12:01:58.506Z,4.28
2022-11-16T12:04:53.268Z,4.05
2022-11-16T12:07:27.758Z,5.55
2022-11-16T12:09:54.780Z,4.60
2022-11-16T12:12:40.680Z,4.97
2022-11-16T12:15:21.863Z,4.27
2022-11-16T12:18:12.290Z,5.40
2022-11-16T12:21:04.050Z,5.10
2022-11-16T12:23:49.225Z,4.32
2022-11-16T12:26:48.561Z,14.85
2022-11-16T12:29:25.177Z,6.93
2022-11-16T12:32:07.819Z,5.40
2022-11-16T12:34:46.628Z,4.70
2022-11-16T12:37:44.079Z,4.53
2022-11-16T12:40:29.336Z,5.43
2022-11-16T12:43:16.942Z,4.65
2022-11-16T12:45:53.916Z,5.10
2022-11-16T12:48:51.199Z,4.63
2022-11-16T12:51:21.247Z,4.70
2022-11-16T12:53:51.049Z,5.17
2022-11-16T12:56:41.463Z,5.25
2022-11-16T12:59:31.435Z,4.55
2022-11-16T13:02:08.713Z,4.65
2022-11-16T13:04:41.253Z,5.03
2022-11-16T13:07:23.459Z,4.90
2022-11-16T13:09:59.110Z,4.68
2022-11-16T13:12:28.447Z,4.65
2022-11-16T13:14:57.782Z,4.55
2022-11-16T13:17:33.394Z,4.07
2022-11-16T13:20:15.552Z,4.77
2022-11-16T13:22:53.475Z,5.50
2022-11-16T13:25:51.049Z,5.72
2022-11-16T13:28:37.010Z,5.10
2022-11-16T13:31:20.940Z,5.18
2022-11-16T13:33:52.966Z,5.70
2022-11-16T13:36:45.507Z,6.20
2022-11-16T13:39:21.981Z,5.50
2022-11-16T13:42:06.400Z,5.57
2022-11-16T13:44:34.886Z,6.13
2022-11-16T13:47:18.143Z,6.40
2022-11-16T13:50:19.272Z,7.37
2022-11-16T13:55:48.628Z,6.57
2022-11-16T13:58:22.048Z,6.57
2022-11-16T14:01:19.233Z,5.10
2022-11-16T14:03:49.268Z,5.03
2022-11-16T14:06:19.293Z,4.57
2022-11-16T14:08:57.120Z,4.33
2022-11-16T14:11:33.999Z,4.53
2022-11-16T14:14:06.231Z,4.85
2022-11-16T14:16:50.971Z,5.10
2022-11-16T14:19:47.688Z,4.83
2022-11-16T14:22:40.639Z,5.47
2022-11-16T14:25:13.983Z,5.37
2022-11-16T14:28:03.713Z,5.03
2022-11-16T14:31:03.651Z,6.23
2022-11-16T14:33:34.312Z,5.80
2022-11-16T14:36:06.265Z,6.70
2022-11-16T14:38:37.536Z,6.47
2022-11-16T14:41:11.460Z,6.20
2022-11-16T14:43:59.395Z,5.90
2022-11-16T14:46:35.790Z,5.80
2022-11-16T14:49:03.527Z,6.35
2022-11-16T14:51:42.589Z,6.27
2022-11-16T14:54:33.952Z,6.80
2022-11-16T14:57:03.490Z,6.03
2022-11-16T14:59:31.502Z,6.40
2022-11-16T15:02:03.970Z,6.83
2022-11-16T15:04:31.817Z,6.77
2022-11-16T15:07:02.884Z,6.77
2022-11-16T15:09:35.119Z,7.37
2022-11-16T15:12:24.135Z,7.00
2022-11-16T15:14:54.905Z,7.07
2022-11-16T15:17:30.167Z,6.50
2022-11-16T15:20:21.276Z,7.70
2022-11-16T15:22:52.044Z,6.60
2022-11-16T15:25:24.373Z,7.70
2022-11-16T15:27:51.893Z,7.40
2022-11-16T15:30:22.369Z,8.90
2022-11-16T15:32:51.250Z,7.80
2022-11-16T15:35:32.623Z,9.53
2022-11-16T15:38:06.855Z,8.83
2022-11-16T15:40:35.209Z,10.20
2022-11-16T15:43:05.291Z,10.07
2022-11-16T15:45:33.515Z,11.40
2022-11-16T15:48:02.964Z,10.73
2022-11-16T15:50:30.275Z,11.67
2022-11-16T15:52:59.730Z,10.07
2022-11-16T15:55:40.665Z,9.60
2022-11-16T15:58:15.368Z,9.50
2022-11-16T16:00:47.109Z,8.83
2022-11-16T16:03:24.769Z,9.03
2022-11-16T16:05:54.597Z,10.43
2022-11-16T16:08:26.026Z,10.20
2022-11-16T16:11:16.602Z,9.57
2022-11-16T16:13:56.163Z,9.70
2022-11-16T16:16:36.975Z,9.50
2022-11-16T16:19:29.508Z,9.53
2022-11-16T16:21:58.793Z,10.17
2022-11-16T16:24:46.478Z,11.03
2022-11-16T16:27:16.023Z,10.67
2022-11-16T16:29:44.298Z,11.00
2022-11-16T16:32:35.858Z,9.57
2022-11-16T16:35:08.967Z,9.70
2022-11-16T16:37:37.062Z,10.57
2022-11-16T16:40:04.957Z,10.53
2022-11-16T16:42:34.852Z,9.90
2022-11-16T16:45:02.457Z,9.97
2022-11-16T16:47:31.756Z,9.70
2022-11-16T16:49:59.031Z,8.77
2022-11-16T16:52:27.794Z,8.67
2022-11-16T16:54:54.756Z,9.27
2022-11-16T16:57:23.037Z,9.23
2022-11-16T16:59:50.151Z,9.63
2022-11-16T17:02:17.485Z,9.60
2022-11-16T17:04:46.931Z,10.37
2022-11-16T17:07:15.653Z,9.23
2022-11-16T17:09:42.957Z,8.13
2022-11-16T17:12:11.559Z,8.43
2022-11-16T17:14:38.653Z,8.50
2022-11-16T17:17:05.657Z,8.63
2022-11-16T17:19:32.950Z,8.70
2022-11-16T17:22:00.194Z,8.57
2022-11-16T17:24:27.354Z,7.87
2022-11-16T17:26:56.047Z,7.97
2022-11-16T17:29:23.174Z,8.30
2022-11-16T17:31:50.402Z,8.43
2022-11-16T17:34:17.787Z,9.00
2022-11-16T17:36:45.337Z,9.00
2022-11-16T17:39:12.574Z,9.63
2022-11-16T17:41:39.652Z,8.30
2022-11-16T17:44:06.956Z,8.70
2022-11-16T17:46:34.171Z,9.60
2022-11-16T17:49:01.412Z,8.20
2022-11-16T17:51:30.019Z,8.53
2022-11-16T17:53:58.583Z,8.23
2022-11-16T17:56:27.731Z,6.90
2022-11-16T17:58:55.804Z,7.67
2022-11-16T18:01:23.154Z,8.00
2022-11-16T18:03:50.519Z,7.07
2022-11-16T18:06:19.784Z,7.43
2022-11-16T18:08:47.985Z,9.20
2022-11-16T18:11:18.341Z,11.00
2022-11-16T18:13:46.099Z,10.57
2022-11-16T18:16:16.471Z,10.30
2022-11-16T18:18:45.012Z,9.43
2022-11-16T18:21:19.891Z,9.90
2022-11-16T18:23:48.298Z,9.47
2022-11-16T18:26:20.661Z,9.80
2022-11-16T18:28:50.476Z,10.13
2022-11-16T18:31:20.055Z,9.60
2022-11-16T18:33:49.335Z,9.87
2022-11-16T18:36:18.058Z,10.37
2022-11-16T18:38:45.651Z,8.83
2022-11-16T18:41:13.031Z,9.00
2022-11-16T18:43:56.284Z,8.63
2022-11-16T18:46:32.721Z,8.93
2022-11-16T18:49:00.755Z,9.67
2022-11-16T18:51:28.947Z,10.03
2022-11-16T18:53:56.966Z,8.27
2022-11-16T18:56:25.141Z,8.67
2022-11-16T18:58:53.215Z,8.90
2022-11-16T19:01:23.971Z,9.70
2022-11-16T19:03:52.463Z,10.13
2022-11-16T19:06:19.652Z,9.07
2022-11-16T19:08:54.070Z,8.50
2022-11-16T19:11:24.276Z,9.37
2022-11-16T19:14:07.782Z,8.70
2022-11-16T19:16:35.385Z,9.37
2022-11-16T19:19:03.007Z,8.80
2022-11-16T19:21:30.555Z,9.00
2022-11-16T19:23:58.575Z,8.73
2022-11-16T19:26:27.534Z,9.20
2022-11-16T19:28:57.221Z,8.37
2022-11-16T19:31:29.444Z,8.77
2022-11-16T19:34:00.879Z,8.37
2022-11-16T19:36:29.987Z,7.97
2022-11-16T19:38:57.948Z,8.03
2022-11-16T19:41:29.669Z,8.13
2022-11-16T19:44:00.012Z,8.17
2022-11-16T19:46:32.459Z,9.30
2022-11-16T19:49:00.624Z,9.20
2022-11-16T19:51:31.033Z,8.73
2022-11-16T19:54:02.617Z,9.00
2022-11-16T19:56:30.472Z,8.77
2022-11-16T19:58:58.177Z,8.53
2022-11-16T20:01:29.585Z,9.63
2022-11-16T20:04:02.628Z,9.53
2022-11-16T20:06:34.485Z,8.43
2022-11-16T20:09:08.984Z,8.20
2022-11-16T20:11:38.385Z,9.10
2022-11-16T20:14:09.392Z,9.97
2022-11-16T20:16:39.765Z,9.83
2022-11-16T20:19:08.993Z,8.87
2022-11-16T20:21:38.853Z,8.70
2022-11-16T20:24:08.798Z,8.70
2022-11-16T20:26:37.298Z,9.13
2022-11-16T20:29:08.319Z,8.20
2022-11-16T20:31:35.483Z,9.53
2022-11-16T20:34:05.358Z,8.90
2022-11-16T20:36:33.933Z,9.53
2022-11-16T20:39:01.167Z,9.80
2022-11-16T20:41:30.457Z,9.53
2022-11-16T20:43:59.390Z,9.10
2022-11-16T20:46:32.882Z,8.40
2022-11-16T20:49:01.980Z,8.77
2022-11-16T20:51:29.801Z,9.00
2022-11-16T20:53:57.909Z,8.93
2022-11-16T20:56:25.173Z,9.80
2022-11-16T20:58:52.361Z,9.00
2022-11-16T21:01:28.971Z,9.50
2022-11-16T21:32:21.866Z,7.97
2022-11-16T21:34:51.704Z,8.70
2022-11-16T21:37:19.245Z,8.80
2022-11-16T21:39:46.233Z,9.00
2022-11-16T21:42:13.289Z,8.27
2022-11-16T21:44:43.216Z,9.33
2022-11-16T21:47:11.335Z,8.77
2022-11-16T21:49:53.084Z,8.60
2022-11-16T21:52:25.626Z,8.43
2022-11-16T21:54:59.358Z,11.33
2022-11-16T21:57:26.292Z,11.27
2022-11-16T21:59:53.146Z,11.63
2022-11-16T22:02:20.038Z,12.20
2022-11-16T22:05:05.657Z,10.55
2022-11-16T22:07:38.630Z,12.03
2022-11-16T22:10:08.801Z,12.27
2022-11-16T22:12:36.270Z,10.90
2022-11-16T22:15:05.311Z,10.27
2022-11-16T22:17:32.905Z,10.00
2022-11-16T22:19:59.861Z,11.37
2022-11-16T22:22:26.803Z,11.50
2022-11-16T22:24:53.739Z,9.43
2022-11-16T22:27:20.659Z,10.37
2022-11-16T22:29:47.607Z,9.57
2022-11-16T22:32:14.483Z,9.80
2022-11-16T22:34:41.441Z,10.77
2022-11-16T22:37:08.335Z,10.27
2022-11-16T22:39:36.644Z,9.17
2022-11-16T22:42:04.244Z,10.53
2022-11-16T22:44:31.318Z,10.10
2022-11-16T22:46:58.216Z,10.30
2022-11-16T22:49:25.167Z,10.43
2022-11-16T22:51:52.147Z,10.40
2022-11-16T22:54:20.042Z,9.80
2022-11-16T22:56:49.217Z,9.83
2022-11-16T22:59:16.158Z,9.53
2022-11-16T23:01:43.025Z,10.07
2022-11-16T23:04:09.991Z,9.98
2022-11-16T23:06:36.890Z,10.30
2022-11-16T23:09:03.947Z,10.33
2022-11-16T23:11:49.712Z,11.07
2022-11-16T23:14:36.331Z,10.10
2022-11-16T23:17:03.952Z,9.10
2022-11-16T23:19:49.385Z,8.65
2022-11-16T23:22:39.497Z,9.40
2022-11-16T23:25:27.235Z,8.53
2022-11-16T23:30:24.650Z,9.20
2022-11-16T23:32:52.057Z,7.57
2022-11-16T23:35:19.613Z,8.27
2022-11-16T23:37:56.831Z,8.90
2022-11-16T23:40:29.062Z,8.27
2022-11-16T23:43:14.393Z,7.72
2022-11-16T23:45:42.898Z,7.20
2022-11-16T23:48:11.765Z,7.97
2022-11-16T23:50:38.947Z,7.70
2022-11-16T23:53:07.610Z,7.73
2022-11-16T23:55:36.284Z,8.13
2022-11-16T23:58:03.142Z,8.90
